Arrington, Illinois
Current Conditions -  °F | °C
As of 8:55 PM on Friday 31 Oct 2014 (Local Time) from KFWC Reporting Station
Scattered Clouds Scattered Clouds  
Wind Chill: 31°   Ceiling: Unl
Heat Index: 39°   Visibility: 10mi
Dew Point: 22°   Wind: 14mph
Humidity: 51%   Direction: 330°NNW
Pressure: 30.27"   Gusts: 23mph
Location:  38.4104°N, 88.5287°W
Report Text: KFWC 010155Z AUTO 33012G20KT 10SM SCT050 04/M05 A3027 RMK AO1 T00381054
Loading
Personal Weather Stations






























Interactive Weather Map
Tropical Storm Tracking
New forecast layout! Learn more

10-Day Weather Forecast

Advertisements
Track Severe Weather on mobile